Time;durP1;ratioP1;P1;durP2;ratioP2;P2;SDS_P1;SDS_P2;PMS_P1;PMS_P2;Temp;Humidity;BMP_temperature;BMP_pressure;BME280_temperature;BME280_humidity;BME280_pressure;Samples;Min_cycle;Max_cycle;Signal;HPM_P1;HPM_P2
2023/08/15 00:02:16;;;;;;;16.08;4.72;;;;;;;20.09;100.00;100712.50;5607575;31;34028;-67
2023/08/15 00:05:19;;;;;;;10.27;4.62;;;;;;;20.08;100.00;100710.06;5604857;31;34594;-66
2023/08/15 00:08:34;;;;;;;8.00;4.25;;;;;;;19.90;100.00;100708.94;5604751;31;34586;-66
2023/08/15 00:11:37;;;;;;;10.63;4.62;;;;;;;19.83;100.00;100712.75;5607469;31;33783;-67
2023/08/15 00:14:40;;;;;;;9.90;4.35;;;;;;;19.88;100.00;100708.37;5607462;31;34448;-67
2023/08/15 00:17:43;;;;;;;8.20;4.72;;;;;;;19.89;100.00;100714.56;5606974;31;34080;-67
2023/08/15 00:20:47;;;;;;;8.52;4.37;;;;;;;19.82;100.00;100711.09;5607480;31;33724;-66
2023/08/15 00:23:51;;;;;;;13.60;4.35;;;;;;;19.92;100.00;100706.88;5607757;31;35279;-67
2023/08/15 00:26:53;;;;;;;10.30;4.90;;;;;;;19.82;100.00;100703.03;5607301;31;33951;-67
2023/08/15 00:29:56;;;;;;;9.82;4.47;;;;;;;19.79;100.00;100698.91;5606804;31;34546;-66
2023/08/15 00:32:59;;;;;;;6.75;4.30;;;;;;;19.69;100.00;100701.28;5607326;31;34439;-67
2023/08/15 00:36:05;;;;;;;7.57;4.50;;;;;;;19.62;100.00;100705.03;5607354;31;33713;-67
2023/08/15 00:39:08;;;;;;;10.13;4.93;;;;;;;19.61;100.00;100693.47;5607319;31;34268;-67
2023/08/15 00:42:11;;;;;;;9.65;4.55;;;;;;;19.47;100.00;100700.81;5607286;31;34503;-67
2023/08/15 00:45:14;;;;;;;9.35;4.55;;;;;;;19.55;100.00;100702.44;5607473;31;33859;-66
2023/08/15 00:48:17;;;;;;;10.50;4.50;;;;;;;19.50;100.00;100697.69;5606216;31;33888;-67
2023/08/15 00:51:20;;;;;;;8.07;4.05;;;;;;;19.44;100.00;100701.25;5607179;31;33704;-67
2023/08/15 00:54:23;;;;;;;14.35;4.82;;;;;;;19.52;100.00;100700.97;5606333;31;34674;-67
2023/08/15 00:57:26;;;;;;;11.35;4.60;;;;;;;19.39;100.00;100708.28;5606134;31;34682;-67
2023/08/15 01:00:29;;;;;;;14.68;4.57;;;;;;;19.43;100.00;100706.81;5607505;31;34561;-67
2023/08/15 01:03:31;;;;;;;11.57;4.85;;;;;;;19.41;100.00;100700.84;5607209;31;33671;-67
2023/08/15 01:06:34;;;;;;;4.90;4.18;;;;;;;19.54;100.00;100690.00;5606879;31;33930;-67
2023/08/15 01:09:37;;;;;;;8.52;4.35;;;;;;;19.49;100.00;100700.59;5606929;31;34710;-68
2023/08/15 01:13:05;;;;;;;8.93;4.65;;;;;;;19.46;100.00;100701.03;5606809;31;34581;-66
2023/08/15 01:16:13;;;;;;;8.55;4.37;;;;;;;19.38;100.00;100703.94;5606820;31;33901;-67
2023/08/15 01:19:24;;;;;;;16.08;4.95;;;;;;;19.36;100.00;100698.81;5606101;31;34662;-69
2023/08/15 01:22:30;;;;;;;9.85;4.72;;;;;;;19.37;100.00;100708.50;5606873;31;33772;-67
2023/08/15 01:25:39;;;;;;;13.25;4.85;;;;;;;19.35;100.00;100699.00;5606981;31;33910;-67
2023/08/15 01:28:42;;;;;;;11.12;4.65;;;;;;;19.33;100.00;100709.16;5605995;31;33538;-67
2023/08/15 01:32:00;;;;;;;6.95;4.40;;;;;;;19.28;100.00;100696.34;5606379;31;33922;-68
2023/08/15 01:35:12;;;;;;;6.82;4.40;;;;;;;19.25;100.00;100701.34;5606886;31;34558;-67
2023/08/15 01:38:31;;;;;;;6.30;4.55;;;;;;;19.27;100.00;100708.16;5607174;31;33859;-67
2023/08/15 01:41:39;;;;;;;8.60;4.22;;;;;;;19.25;100.00;100706.72;5606871;31;33962;-67
2023/08/15 01:44:42;;;;;;;10.13;4.40;;;;;;;19.14;100.00;100704.72;5606590;31;33800;-68
2023/08/15 01:47:45;;;;;;;6.87;5.10;;;;;;;19.17;100.00;100702.41;5606577;31;34506;-67
2023/08/15 01:50:48;;;;;;;8.85;4.50;;;;;;;19.20;100.00;100704.69;5606686;31;33739;-67
2023/08/15 01:53:51;;;;;;;9.13;4.50;;;;;;;19.21;100.00;100700.12;5606670;31;33826;-67
2023/08/15 01:56:54;;;;;;;7.80;4.57;;;;;;;19.15;100.00;100704.50;5606631;31;33491;-67
2023/08/15 01:59:57;;;;;;;8.90;4.97;;;;;;;19.07;100.00;100707.47;5606953;31;33878;-67
2023/08/15 02:03:00;;;;;;;9.32;4.72;;;;;;;19.02;100.00;100702.75;5606868;31;34271;-67
2023/08/15 02:06:03;;;;;;;9.18;4.65;;;;;;;18.94;100.00;100712.88;5606138;31;33743;-67
2023/08/15 02:09:06;;;;;;;8.20;4.40;;;;;;;18.86;100.00;100705.06;5606409;31;34141;-67
2023/08/15 02:12:09;;;;;;;8.75;4.50;;;;;;;18.80;100.00;100706.75;5606822;31;33729;-67
2023/08/15 02:15:12;;;;;;;9.00;4.32;;;;;;;18.83;100.00;100708.22;5605396;31;33889;-68
2023/08/15 02:18:15;;;;;;;6.10;4.47;;;;;;;18.95;100.00;100706.47;5606458;31;34297;-67
2023/08/15 02:21:19;;;;;;;8.10;4.60;;;;;;;18.86;100.00;100703.22;5606307;31;33798;-67
2023/08/15 02:24:21;;;;;;;9.02;4.40;;;;;;;18.81;100.00;100705.72;5606336;31;33697;-68
2023/08/15 02:27:25;;;;;;;5.72;4.28;;;;;;;18.92;100.00;100698.84;5606232;31;33916;-68
2023/08/15 02:30:27;;;;;;;5.43;4.18;;;;;;;18.88;100.00;100697.63;5606206;31;34540;-68
2023/08/15 02:33:32;;;;;;;6.05;4.40;;;;;;;18.86;100.00;100697.84;5606110;31;34634;-68
2023/08/15 02:36:35;;;;;;;9.25;4.85;;;;;;;18.81;100.00;100696.81;5606136;31;33739;-68
2023/08/15 02:39:37;;;;;;;6.57;4.50;;;;;;;18.79;100.00;100698.88;5605046;31;33880;-67
2023/08/15 02:42:40;;;;;;;8.50;4.72;;;;;;;18.76;100.00;100693.97;5605818;31;33805;-67
2023/08/15 02:45:43;;;;;;;10.05;5.00;;;;;;;18.83;100.00;100695.56;5605767;31;34777;-67
2023/08/15 02:48:46;;;;;;;6.45;4.68;;;;;;;18.73;100.00;100700.59;5605810;31;34058;-67
2023/08/15 02:51:49;;;;;;;6.75;4.60;;;;;;;18.78;100.00;100700.78;5605895;31;34392;-67
2023/08/15 02:54:51;;;;;;;7.85;4.80;;;;;;;18.84;100.00;100709.84;5605740;31;33802;-67
2023/08/15 02:57:54;;;;;;;5.82;4.47;;;;;;;18.83;100.00;100705.53;5605804;31;33912;-67
2023/08/15 03:00:57;;;;;;;6.50;4.70;;;;;;;18.73;100.00;100702.47;5605575;31;33719;-67
2023/08/15 03:04:00;;;;;;;7.00;4.90;;;;;;;18.78;100.00;100702.66;5605504;31;34134;-67
2023/08/15 03:07:03;;;;;;;7.45;4.68;;;;;;;18.69;100.00;100712.78;5605304;31;33787;-67
2023/08/15 03:10:07;;;;;;;10.50;4.50;;;;;;;18.58;100.00;100703.53;5604615;31;33681;-67
2023/08/15 03:13:10;;;;;;;7.40;4.55;;;;;;;18.64;100.00;100705.37;5605360;31;34386;-67
2023/08/15 03:16:13;;;;;;;8.02;4.40;;;;;;;18.61;100.00;100705.78;5605217;31;34943;-67
2023/08/15 03:19:16;;;;;;;11.05;4.72;;;;;;;18.61;100.00;100704.97;5605231;31;33942;-67
2023/08/15 03:22:19;;;;;;;6.97;4.50;;;;;;;18.65;100.00;100700.81;5605223;31;34383;-67
2023/08/15 03:25:21;;;;;;;10.93;4.72;;;;;;;18.61;100.00;100700.41;5605456;31;34002;-67
2023/08/15 03:28:25;;;;;;;6.10;4.50;;;;;;;18.58;100.00;100700.03;5603929;31;34005;-67
2023/08/15 03:31:28;;;;;;;8.25;4.82;;;;;;;18.59;100.00;100693.59;5605024;31;34619;-67
2023/08/15 03:34:31;;;;;;;8.35;4.65;;;;;;;18.53;100.00;100697.13;5604777;31;34571;-67
2023/08/15 03:37:35;;;;;;;7.70;4.47;;;;;;;18.59;100.00;100698.97;5604978;31;34591;-67
2023/08/15 03:40:38;;;;;;;11.60;4.85;;;;;;;18.55;100.00;100703.12;5604813;31;33656;-66
2023/08/15 03:43:41;;;;;;;10.13;4.80;;;;;;;18.46;100.00;100701.69;5604737;31;33868;-67
2023/08/15 03:46:45;;;;;;;9.52;4.85;;;;;;;18.53;100.00;100702.50;5604523;31;34612;-67
2023/08/15 03:49:50;;;;;;;6.85;4.87;;;;;;;18.53;100.00;100705.19;5602557;31;34467;-66
2023/08/15 03:52:53;;;;;;;6.47;4.70;;;;;;;18.51;100.00;100701.87;5588405;31;33736;-66
2023/08/15 03:55:56;;;;;;;6.40;4.82;;;;;;;18.56;100.00;100708.28;5607503;31;34602;-67
2023/08/15 03:58:59;;;;;;;7.87;4.32;;;;;;;18.54;100.00;100704.97;5607613;31;33938;-67
2023/08/15 04:02:01;;;;;;;6.25;4.68;;;;;;;18.67;100.00;100713.03;5607596;31;33550;-67
2023/08/15 04:05:04;;;;;;;7.97;4.57;;;;;;;18.63;100.00;100706.41;5607478;31;33268;-68
2023/08/15 04:08:07;;;;;;;11.73;4.68;;;;;;;18.62;100.00;100715.50;5607418;31;33716;-67
2023/08/15 04:11:10;;;;;;;15.27;7.28;;;;;;;18.63;100.00;100714.47;5607332;31;33887;-68
2023/08/15 04:14:13;;;;;;;9.23;4.93;;;;;;;18.64;100.00;100715.28;5606505;31;33785;-67
2023/08/15 04:17:16;;;;;;;10.15;5.12;;;;;;;18.82;100.00;100717.31;5607306;31;33866;-67
2023/08/15 04:20:18;;;;;;;7.55;5.05;;;;;;;18.80;100.00;100728.25;5607435;31;33657;-67
2023/08/15 04:23:21;;;;;;;8.50;4.78;;;;;;;18.82;100.00;100728.87;5606353;31;33852;-67
2023/08/15 04:26:24;;;;;;;10.75;5.00;;;;;;;18.85;100.00;100725.75;5607346;31;34496;-67
2023/08/15 04:29:27;;;;;;;9.30;5.12;;;;;;;18.92;100.00;100725.75;5607441;31;33610;-67
2023/08/15 04:32:30;;;;;;;6.70;4.85;;;;;;;18.99;100.00;100729.19;5607452;31;34592;-67
2023/08/15 04:35:33;;;;;;;7.87;4.72;;;;;;;19.09;100.00;100727.72;5606404;31;33918;-67
2023/08/15 04:38:36;;;;;;;7.55;5.20;;;;;;;19.06;100.00;100727.31;5607349;31;33919;-67
2023/08/15 04:41:39;;;;;;;9.52;5.20;;;;;;;19.04;100.00;100730.22;5606229;31;33748;-67
2023/08/15 04:44:42;;;;;;;7.87;4.95;;;;;;;19.12;100.00;100731.84;5606614;31;33705;-67
2023/08/15 04:47:45;;;;;;;6.57;4.72;;;;;;;19.19;100.00;100740.69;5606861;31;34219;-67
2023/08/15 04:50:48;;;;;;;9.10;4.53;;;;;;;19.37;100.00;100738.09;5607134;31;33694;-67
2023/08/15 04:53:51;;;;;;;10.75;5.20;;;;;;;19.29;100.00;100740.22;5606146;31;33597;-67
2023/08/15 04:56:54;;;;;;;20.88;7.30;;;;;;;19.32;100.00;100735.22;5606249;31;33883;-67
2023/08/15 04:59:56;;;;;;;10.38;4.72;;;;;;;19.41;100.00;100738.50;5606231;31;34566;-67
2023/08/15 05:02:59;;;;;;;8.88;4.85;;;;;;;19.49;100.00;100740.97;5606513;31;33808;-67
2023/08/15 05:06:02;;;;;;;9.73;4.30;;;;;;;19.63;100.00;100739.84;5606209;31;34433;-67
2023/08/15 05:09:05;;;;;;;12.50;5.03;;;;;;;19.74;100.00;100749.91;5606863;31;35561;-67
2023/08/15 05:12:08;;;;;;;10.65;5.07;;;;;;;19.72;100.00;100738.50;5606641;31;32328;-68
2023/08/15 05:15:11;;;;;;;7.93;4.72;;;;;;;19.91;100.00;100742.09;5606814;31;34007;-68
2023/08/15 05:18:15;;;;;;;10.02;4.95;;;;;;;20.04;100.00;100742.00;5606723;31;34597;-68
2023/08/15 05:21:18;;;;;;;9.98;4.80;;;;;;;20.22;100.00;100755.50;5606974;31;34291;-68
2023/08/15 05:24:24;;;;;;;4.93;4.30;;;;;;;20.31;100.00;100753.38;5606413;31;33821;-68
2023/08/15 05:27:27;;;;;;;10.15;5.10;;;;;;;20.36;100.00;100757.06;5606649;31;34568;-68
2023/08/15 05:30:34;;;;;;;10.00;4.62;;;;;;;20.51;100.00;100754.00;5597605;31;33817;-67
2023/08/15 05:33:36;;;;;;;8.82;4.55;;;;;;;20.53;100.00;100756.44;5586660;31;33675;-68
2023/08/15 05:36:39;;;;;;;5.80;4.32;;;;;;;20.64;100.00;100755.72;5586536;31;33905;-68
2023/08/15 05:39:42;;;;;;;8.88;4.57;;;;;;;20.88;100.00;100748.59;5586523;31;34818;-67
2023/08/15 05:42:45;;;;;;;6.95;4.43;;;;;;;20.93;100.00;100754.97;5585851;31;34196;-68
2023/08/15 05:45:48;;;;;;;11.10;4.35;;;;;;;21.16;100.00;100754.28;5585723;31;33738;-67
2023/08/15 05:48:51;;;;;;;5.68;4.18;;;;;;;21.32;100.00;100758.22;5585997;31;34782;-68
2023/08/15 05:51:54;;;;;;;7.35;4.20;;;;;;;21.39;100.00;100757.09;5585933;31;34527;-67
2023/08/15 05:54:57;;;;;;;9.35;4.20;;;;;;;21.46;100.00;100762.37;5586670;31;33570;-67
2023/08/15 05:58:00;;;;;;;11.98;5.80;;;;;;;21.53;100.00;100757.72;5589821;31;33458;-67
2023/08/15 06:01:04;;;;;;;8.43;4.40;;;;;;;21.75;100.00;100755.28;5604280;31;33871;-67
2023/08/15 06:04:07;;;;;;;9.48;4.35;;;;;;;21.93;100.00;100753.34;5599383;31;33784;-68
2023/08/15 06:07:10;;;;;;;6.75;4.20;;;;;;;22.07;100.00;100757.47;5598859;31;33936;-68
2023/08/15 06:10:13;;;;;;;9.27;4.30;;;;;;;22.17;100.00;100748.81;5587785;31;34318;-68
2023/08/15 06:13:16;;;;;;;8.95;4.25;;;;;;;22.28;100.00;100750.69;5593850;31;33182;-68
2023/08/15 06:16:19;;;;;;;8.02;4.07;;;;;;;22.45;100.00;100750.81;5585088;31;33838;-68
2023/08/15 06:19:22;;;;;;;9.98;4.22;;;;;;;22.49;100.00;100752.78;5601358;31;33745;-67
2023/08/15 06:22:25;;;;;;;16.55;4.43;;;;;;;22.51;100.00;100749.88;5593433;31;33374;-68
2023/08/15 06:25:27;;;;;;;6.32;4.25;;;;;;;22.78;100.00;100742.91;5586129;31;34692;-68
2023/08/15 06:28:30;;;;;;;9.93;4.10;;;;;;;23.04;100.00;100748.81;5586492;31;34235;-67
2023/08/15 06:31:34;;;;;;;9.80;4.07;;;;;;;23.13;100.00;100742.78;5585744;31;33815;-67
2023/08/15 06:34:37;;;;;;;7.28;3.83;;;;;;;23.32;100.00;100744.25;5586065;31;33731;-66
2023/08/15 06:37:40;;;;;;;14.70;4.50;;;;;;;23.38;100.00;100745.97;5594039;31;34100;-66
2023/08/15 06:40:42;;;;;;;13.07;4.70;;;;;;;23.54;100.00;100747.09;5605232;31;34540;-66
2023/08/15 06:43:46;;;;;;;9.57;3.70;;;;;;;23.79;100.00;100746.72;5605514;31;34305;-66
2023/08/15 06:46:49;;;;;;;7.15;3.90;;;;;;;23.91;100.00;100750.19;5604556;31;33949;-65
2023/08/15 06:49:52;;;;;;;8.57;4.18;;;;;;;24.03;100.00;100752.78;5602088;31;34501;-65
2023/08/15 06:52:55;;;;;;;10.75;3.87;;;;;;;24.24;100.00;100757.50;5596114;31;34547;-66
2023/08/15 06:56:00;;;;;;;10.73;3.83;;;;;;;24.45;100.00;100761.31;5598410;31;34771;-66
2023/08/15 06:59:05;;;;;;;11.65;3.92;;;;;;;24.85;100.00;100753.72;5586451;31;34757;-67
2023/08/15 07:02:08;;;;;;;13.35;3.62;;;;;;;24.91;100.00;100750.03;5585566;31;33683;-66
2023/08/15 07:05:11;;;;;;;7.53;3.75;;;;;;;25.35;100.00;100755.41;5584349;31;34427;-66
2023/08/15 07:08:14;;;;;;;8.02;3.70;;;;;;;25.70;100.00;100749.53;5580041;31;33854;-67
2023/08/15 07:11:17;;;;;;;8.10;3.70;;;;;;;26.46;97.52;100747.38;5585816;31;33507;-67
2023/08/15 07:14:19;;;;;;;7.57;4.10;;;;;;;27.21;85.64;100749.63;5585500;31;33727;-67
2023/08/15 07:17:22;;;;;;;5.47;3.70;;;;;;;27.65;84.81;100742.63;5585336;31;33803;-66
2023/08/15 07:20:26;;;;;;;8.30;3.80;;;;;;;27.53;84.02;100746.72;5583999;31;35300;-67
2023/08/15 07:23:35;;;;;;;8.18;3.40;;;;;;;28.48;78.96;100745.03;5584706;31;34559;-66
2023/08/15 07:26:37;;;;;;;9.55;3.50;;;;;;;28.26;74.94;100739.09;5585281;31;33716;-67
2023/08/15 07:29:41;;;;;;;8.57;3.30;;;;;;;29.25;69.88;100746.38;5587641;31;33971;-67
2023/08/15 07:32:44;;;;;;;13.60;3.50;;;;;;;30.00;66.67;100749.69;5586727;31;33955;-67
2023/08/15 07:35:47;;;;;;;11.75;3.22;;;;;;;30.16;63.95;100748.47;5587524;31;33766;-67
2023/08/15 07:38:58;;;;;;;5.93;3.30;;;;;;;29.86;64.08;100743.22;5601554;31;33781;-67
2023/08/15 07:42:06;;;;;;;14.00;3.58;;;;;;;30.28;61.67;100751.59;5589108;31;34284;-67
2023/08/15 07:45:11;;;;;;;8.05;4.07;;;;;;;30.49;61.89;100757.72;5607121;31;33750;-67
2023/08/15 07:48:15;;;;;;;9.60;3.55;;;;;;;30.63;60.63;100739.47;5607504;31;34041;-67
2023/08/15 07:51:17;;;;;;;8.63;3.20;;;;;;;31.11;60.25;100745.75;5589902;31;33822;-67
2023/08/15 07:54:20;;;;;;;7.70;3.20;;;;;;;32.39;54.28;100740.62;5587402;31;34821;-68
2023/08/15 07:57:24;;;;;;;7.93;3.08;;;;;;;31.50;57.32;100740.78;5587630;31;33932;-67
2023/08/15 08:00:27;;;;;;;13.88;3.55;;;;;;;33.07;52.50;100751.63;5588338;31;33914;-67
2023/08/15 08:03:30;;;;;;;13.45;3.55;;;;;;;32.02;53.87;100738.00;5596581;31;35043;-67
2023/08/15 08:06:33;;;;;;;7.20;3.53;;;;;;;31.98;54.24;100735.06;5606451;31;33723;-68
2023/08/15 08:09:43;;;;;;;11.57;3.70;;;;;;;33.07;51.14;100740.62;5597787;31;34612;-67
2023/08/15 08:12:46;;;;;;;9.05;3.58;;;;;;;32.67;52.13;100738.75;5604751;31;33875;-68
2023/08/15 08:15:49;;;;;;;10.00;3.70;;;;;;;32.48;52.83;100743.50;5607162;31;35099;-68
2023/08/15 08:18:52;;;;;;;12.68;3.87;;;;;;;33.02;52.41;100737.16;5590141;31;33704;-68
2023/08/15 08:21:55;;;;;;;19.02;3.65;;;;;;;33.47;49.92;100727.91;5586904;31;34135;-70
2023/08/15 08:25:10;;;;;;;20.90;4.78;;;;;;;31.53;54.37;100722.91;5588820;31;33831;-69
2023/08/15 08:28:13;;;;;;;13.95;3.72;;;;;;;33.00;51.93;100728.44;5601431;31;34739;-69
2023/08/15 08:31:16;;;;;;;11.75;3.30;;;;;;;33.12;51.64;100728.69;5588195;31;33511;-69
2023/08/15 08:34:19;;;;;;;14.98;3.78;;;;;;;35.01;45.18;100731.75;5587227;31;33986;-70
2023/08/15 08:37:21;;;;;;;11.75;4.00;;;;;;;34.18;47.47;100734.38;5587195;31;33863;-69
2023/08/15 08:40:24;;;;;;;10.00;3.50;;;;;;;32.23;51.31;100723.66;5585901;31;34005;-70
2023/08/15 08:43:28;;;;;;;11.82;3.50;;;;;;;33.38;49.48;100723.47;5586891;31;33988;-71
2023/08/15 08:46:32;;;;;;;9.15;3.28;;;;;;;35.25;45.55;100721.09;5587956;31;33867;-70
2023/08/15 08:49:37;;;;;;;7.40;3.33;;;;;;;35.85;43.86;100731.31;5586489;31;33783;-69
2023/08/15 08:52:42;;;;;;;8.30;3.00;;;;;;;35.43;42.88;100732.97;5586650;31;34650;-69
2023/08/15 08:55:48;;;;;;;13.70;3.37;;;;;;;34.00;44.84;100729.91;5587021;31;34386;-69
2023/08/15 08:59:10;;;;;;;16.50;3.70;;;;;;;34.39;44.67;100727.19;5585920;31;33867;-70
2023/08/15 09:02:18;;;;;;;11.55;3.28;;;;;;;35.43;43.44;100727.44;5586016;31;33838;-71
2023/08/15 09:05:21;;;;;;;11.70;2.92;;;;;;;36.04;42.02;100727.03;5585919;31;34619;-70
2023/08/15 09:08:25;;;;;;;10.77;3.35;;;;;;;34.57;44.08;100716.25;5587231;31;34046;-70
2023/08/15 09:11:35;;;;;;;7.75;3.25;;;;;;;35.23;43.01;100717.88;5602386;31;33817;-71
2023/08/15 09:14:41;;;;;;;14.63;3.45;;;;;;;36.87;39.79;100718.25;5603388;31;33442;-68
2023/08/15 09:17:44;;;;;;;13.07;3.15;;;;;;;36.03;40.85;100708.03;5606682;31;33580;-70
2023/08/15 09:20:47;;;;;;;9.35;3.00;;;;;;;36.08;40.42;100711.41;5606470;31;33737;-69
2023/08/15 09:23:51;;;;;;;7.45;2.95;;;;;;;35.97;40.31;100710.16;5606673;31;34101;-69
2023/08/15 09:26:54;;;;;;;9.00;3.15;;;;;;;37.42;38.19;100701.41;5606218;31;34628;-70
2023/08/15 09:29:57;;;;;;;11.57;3.08;;;;;;;37.84;35.65;100705.72;5606432;31;34028;-69
2023/08/15 09:33:04;;;;;;;15.25;2.60;;;;;;;37.63;36.36;100709.66;5606270;31;33904;-71
2023/08/15 09:36:09;;;;;;;8.02;2.35;;;;;;;38.44;35.29;100697.87;5606304;31;33891;-70
2023/08/15 09:39:13;;;;;;;4.57;2.12;;;;;;;38.99;33.45;100705.53;5602419;31;33604;-69
2023/08/15 09:42:20;;;;;;;6.05;2.20;;;;;;;38.34;32.95;100703.84;5596485;31;33909;-71
2023/08/15 09:45:26;;;;;;;5.53;2.30;;;;;;;39.89;29.25;100707.75;5592500;31;34950;-72
2023/08/15 09:48:30;;;;;;;5.87;2.15;;;;;;;39.52;29.83;100701.56;5588361;31;34492;-71
2023/08/15 09:51:34;;;;;;;7.43;2.45;;;;;;;40.76;30.24;100705.59;5583972;31;33753;-70
2023/08/15 09:54:40;;;;;;;5.53;2.35;;;;;;;41.87;28.84;100706.72;5589570;31;33837;-69
2023/08/15 09:57:45;;;;;;;9.57;2.65;;;;;;;42.69;26.11;100705.31;5601406;31;33470;-70
2023/08/15 10:00:51;;;;;;;5.65;2.50;;;;;;;42.15;27.05;100706.41;5604389;31;33916;-70
2023/08/15 10:04:03;;;;;;;6.97;2.22;;;;;;;41.16;26.66;100705.28;5605735;31;34485;-69
2023/08/15 10:07:06;;;;;;;3.83;2.50;;;;;;;41.25;27.21;100698.72;5604289;31;33849;-70
2023/08/15 10:10:10;;;;;;;5.78;2.20;;;;;;;42.16;27.15;100694.09;5590662;31;34006;-70
2023/08/15 10:13:13;;;;;;;7.72;2.30;;;;;;;39.79;28.20;100691.63;5606500;31;33624;-70
2023/08/15 10:16:16;;;;;;;5.82;2.10;;;;;;;39.24;29.43;100684.06;5606235;31;33715;-70
2023/08/15 10:19:20;;;;;;;7.18;1.92;;;;;;;39.64;29.04;100689.59;5606327;31;34436;-70
2023/08/15 10:22:23;;;;;;;4.05;2.20;;;;;;;39.45;28.62;100693.84;5606392;31;33805;-70
2023/08/15 10:25:34;;;;;;;4.35;2.08;;;;;;;39.29;28.46;100697.69;5606021;31;33859;-71
2023/08/15 10:28:40;;;;;;;6.37;2.22;;;;;;;36.64;31.48;100692.84;5604123;31;33787;-70
2023/08/15 10:31:42;;;;;;;12.05;2.50;;;;;;;35.55;33.25;100686.19;5605763;31;33995;-70
2023/08/15 10:34:52;;;;;;;6.85;2.35;;;;;;;34.80;34.55;100682.78;5605666;31;33832;-69
2023/08/15 10:37:56;;;;;;;7.45;2.80;;;;;;;35.15;34.83;100686.34;5598323;31;33740;-72
2023/08/15 10:41:21;;;;;;;6.87;2.53;;;;;;;36.20;33.79;100676.81;5585909;31;33565;-69
2023/08/15 10:44:26;;;;;;;7.03;2.70;;;;;;;38.56;30.45;100673.69;5586251;31;34435;-69
2023/08/15 10:47:41;;;;;;;5.35;2.12;;;;;;;40.40;28.20;100666.97;5586124;31;33608;-69
2023/08/15 10:50:48;;;;;;;6.15;2.10;;;;;;;42.71;25.75;100677.81;5584903;31;34345;-69
2023/08/15 10:53:52;;;;;;;3.50;1.95;;;;;;;42.08;25.21;100670.03;5588861;31;34611;-69
2023/08/15 10:56:57;;;;;;;9.13;2.42;;;;;;;42.26;25.42;100667.56;5588275;31;34114;-70
2023/08/15 11:00:00;;;;;;;5.10;2.20;;;;;;;44.86;22.75;100669.97;5587618;31;34855;-70
2023/08/15 11:03:09;;;;;;;3.90;2.53;;;;;;;43.83;23.32;100662.78;5607040;31;33702;-70
2023/08/15 11:06:13;;;;;;;7.18;2.30;;;;;;;43.36;23.63;100674.69;5607152;31;33825;-70
2023/08/15 11:09:16;;;;;;;3.28;2.22;;;;;;;42.65;24.01;100663.38;5604558;31;34516;-68
2023/08/15 11:12:22;;;;;;;3.42;2.00;;;;;;;43.53;22.98;100658.13;5593968;31;33546;-69
2023/08/15 11:15:25;;;;;;;7.32;2.40;;;;;;;45.33;21.20;100663.38;5588845;31;34094;-70
2023/08/15 11:18:28;;;;;;;5.93;2.15;;;;;;;45.82;20.87;100666.31;5604422;31;34196;-69
2023/08/15 11:21:31;;;;;;;4.12;2.10;;;;;;;46.26;20.10;100665.09;5604811;31;33680;-70
2023/08/15 11:24:34;;;;;;;3.25;2.00;;;;;;;46.61;20.19;100664.25;5594256;31;33824;-70
2023/08/15 11:27:41;;;;;;;3.83;2.05;;;;;;;43.07;22.15;100656.75;5604852;31;36089;-70
2023/08/15 11:30:44;;;;;;;6.65;2.20;;;;;;;44.74;22.58;100650.72;5597248;31;33684;-69
2023/08/15 11:33:50;;;;;;;3.20;2.28;;;;;;;45.62;20.83;100641.81;5587645;31;33934;-69
2023/08/15 11:36:53;;;;;;;3.28;2.20;;;;;;;48.15;18.59;100638.47;5591767;31;33564;-69
2023/08/15 11:39:56;;;;;;;4.85;2.30;;;;;;;45.64;19.97;100643.03;5589308;31;33826;-69
2023/08/15 11:42:59;;;;;;;3.15;2.22;;;;;;;46.70;20.27;100642.16;5599626;31;33569;-70
2023/08/15 11:46:04;;;;;;;4.78;2.20;;;;;;;44.24;21.96;100642.00;5587646;31;33840;-70
2023/08/15 11:49:18;;;;;;;4.32;2.30;;;;;;;46.32;20.19;100649.47;5587717;31;33840;-70
2023/08/15 11:52:21;;;;;;;2.87;2.08;;;;;;;42.45;23.45;100651.53;5591897;31;33718;-68
2023/08/15 11:55:25;;;;;;;5.35;2.28;;;;;;;43.91;22.64;100640.16;5601782;31;33639;-69
2023/08/15 11:58:29;;;;;;;3.53;2.30;;;;;;;43.21;22.79;100634.63;5604593;31;34683;-70
2023/08/15 12:01:42;;;;;;;4.30;2.30;;;;;;;45.47;22.53;100635.41;5607300;31;34339;-68
2023/08/15 12:04:47;;;;;;;4.03;2.08;;;;;;;45.85;21.56;100633.84;5607191;31;33871;-68
2023/08/15 12:07:50;;;;;;;4.57;2.28;;;;;;;45.41;22.21;100625.81;5605845;31;33768;-67
2023/08/15 12:10:55;;;;;;;7.87;2.35;;;;;;;46.32;20.41;100626.22;5587226;31;33898;-70
2023/08/15 12:13:58;;;;;;;9.45;2.60;;;;;;;45.78;21.29;100619.84;5585944;31;33683;-70
2023/08/15 12:17:01;;;;;;;4.62;2.20;;;;;;;46.82;20.70;100619.25;5587289;31;34619;-70
2023/08/15 12:20:06;;;;;;;5.55;2.50;;;;;;;47.80;20.11;100617.06;5606041;31;33289;-70
2023/08/15 12:23:09;;;;;;;3.97;2.10;;;;;;;45.65;20.90;100613.00;5602841;31;33812;-71
2023/08/15 12:26:25;;;;;;;7.22;2.40;;;;;;;46.16;20.08;100596.59;5587347;31;34462;-70
2023/08/15 12:29:29;;;;;;;5.32;2.58;;;;;;;45.55;20.62;100605.41;5594864;31;33937;-69
2023/08/15 12:32:51;;;;;;;5.15;2.15;;;;;;;45.59;21.44;100598.59;5605165;31;34724;-70
2023/08/15 12:35:55;;;;;;;7.32;2.53;;;;;;;44.85;21.66;100593.59;5606909;31;34589;-69
2023/08/15 12:38:57;;;;;;;3.30;2.35;;;;;;;47.16;20.21;100605.44;5606823;31;33497;-71
2023/08/15 12:42:01;;;;;;;7.47;2.80;;;;;;;46.68;20.07;100600.44;5607042;31;35208;-70
2023/08/15 12:45:05;;;;;;;7.37;2.35;;;;;;;45.10;21.15;100599.28;5606843;31;33781;-70
2023/08/15 12:48:07;;;;;;;3.65;2.12;;;;;;;44.46;22.35;100593.37;5606859;31;33783;-70
2023/08/15 12:51:10;;;;;;;7.68;2.45;;;;;;;41.33;25.05;100600.22;5606788;31;33583;-70
2023/08/15 12:54:14;;;;;;;8.63;2.40;;;;;;;43.18;23.17;100588.72;5606756;31;33910;-70
2023/08/15 12:57:16;;;;;;;5.10;2.50;;;;;;;44.95;21.97;100589.22;5606744;31;33861;-70
2023/08/15 13:00:19;;;;;;;5.72;2.20;;;;;;;45.10;21.82;100582.50;5606596;31;33967;-70
2023/08/15 13:03:22;;;;;;;5.28;2.37;;;;;;;46.84;18.73;100599.19;5606607;31;33935;-70
2023/08/15 13:06:25;;;;;;;12.37;2.58;;;;;;;43.30;22.95;100584.84;5606422;31;34566;-70
2023/08/15 13:09:28;;;;;;;4.70;2.35;;;;;;;46.72;18.86;100591.22;5606459;31;34516;-70
2023/08/15 13:12:32;;;;;;;4.07;2.10;;;;;;;48.91;17.35;100588.53;5602227;31;34617;-70
2023/08/15 13:15:35;;;;;;;4.95;2.30;;;;;;;45.84;19.33;100571.38;5586375;31;33922;-68
2023/08/15 13:18:38;;;;;;;4.90;2.60;;;;;;;42.85;23.04;100558.78;5605806;31;34317;-69
2023/08/15 13:21:40;;;;;;;8.88;2.70;;;;;;;41.81;24.54;100548.53;5603642;31;33716;-69
2023/08/15 13:24:43;;;;;;;7.37;2.45;;;;;;;41.59;26.07;100542.59;5588184;31;33967;-68
2023/08/15 13:27:46;;;;;;;8.70;2.53;;;;;;;39.78;28.08;100538.03;5602436;31;34406;-69
2023/08/15 13:30:49;;;;;;;5.25;2.65;;;;;;;38.89;28.72;100540.38;5605746;31;34471;-68
2023/08/15 13:33:52;;;;;;;9.77;2.55;;;;;;;37.64;30.28;100528.56;5606125;31;34040;-70
2023/08/15 13:36:55;;;;;;;8.00;2.65;;;;;;;41.27;26.36;100535.66;5606201;31;34030;-70
2023/08/15 13:39:59;;;;;;;8.07;2.70;;;;;;;42.67;24.14;100537.41;5606206;31;34455;-69
2023/08/15 13:43:02;;;;;;;6.62;2.22;;;;;;;44.92;21.70;100546.03;5605820;31;33773;-68
2023/08/15 13:46:07;;;;;;;6.00;2.28;;;;;;;45.32;20.72;100541.28;5593903;31;33824;-68
2023/08/15 13:49:10;;;;;;;7.60;2.65;;;;;;;45.36;22.03;100550.53;5585926;31;34114;-70
2023/08/15 13:52:13;;;;;;;7.80;2.47;;;;;;;47.49;20.35;100536.59;5584899;31;33912;-68
2023/08/15 13:55:18;;;;;;;5.75;2.45;;;;;;;47.29;19.72;100536.34;5586324;31;33994;-69
2023/08/15 13:58:21;;;;;;;6.55;2.28;;;;;;;47.37;19.57;100531.47;5586186;31;34530;-70
2023/08/15 14:01:24;;;;;;;4.72;2.70;;;;;;;47.79;19.48;100542.34;5585926;31;35128;-68
2023/08/15 14:04:28;;;;;;;5.85;2.62;;;;;;;46.88;20.34;100536.16;5586011;31;34843;-70
2023/08/15 14:07:32;;;;;;;9.40;2.75;;;;;;;47.21;19.62;100531.94;5584908;31;34083;-68
2023/08/15 14:10:36;;;;;;;4.03;2.25;;;;;;;46.24;20.26;100541.25;5585940;31;34775;-68